Terminal Aerodrome Forecast
Issued by NWS

Home | Current Version | Previous Version | Text Only | Print | Product List | Glossary On
Versions: 1 2 3 4 5 6 7 8 9 10 11 12
000
FTUS45 KFGZ 220539
TAFPGA
TAF
KPGA 220539Z 2206/2306 VRB05KT P6SM SCT090 BKN140 BKN200
     FM221900 20010G20KT P6SM VCSH SCT060 BKN120
      TEMPO 2220/2224 VRB20G30KT 5SM -TSRA BKN050CB
     FM230300 VRB05KT P6SM BKN080 OVC140
      AMD NOT SKED=

USA.gov is the U.S. government's official web portal to all federal, state and local government web resources and services.